createdAt,value
2023-04-16T00:01:03.089Z,98927.44
2023-04-16T00:03:31.633Z,98924.81
2023-04-16T00:05:59.761Z,98917.97
2023-04-16T00:08:27.677Z,98923.09
2023-04-16T00:10:55.956Z,98923.94
2023-04-16T00:13:24.020Z,98918.72
2023-04-16T00:15:51.900Z,98921.19
2023-04-16T00:18:21.399Z,98927.25
2023-04-16T00:20:49.523Z,98923.91
2023-04-16T00:23:17.701Z,98919.53
2023-04-16T00:25:45.999Z,98915.31
2023-04-16T00:28:13.917Z,98916.13
2023-04-16T00:30:41.922Z,98918.69
2023-04-16T00:33:10.261Z,98919.69
2023-04-16T00:35:38.207Z,98917.88
2023-04-16T00:38:06.316Z,98925.66
2023-04-16T00:40:34.615Z,98922.91
2023-04-16T00:43:02.576Z,98921.91
2023-04-16T00:45:30.590Z,98928.94
2023-04-16T00:48:00.563Z,98927.09
2023-04-16T00:50:29.056Z,98923.69
2023-04-16T00:52:57.237Z,98921.28
2023-04-16T00:55:25.601Z,98920.41
2023-04-16T00:57:54.069Z,98912.59
2023-04-16T01:00:22.270Z,98924.69
2023-04-16T01:02:50.736Z,98931.63
2023-04-16T01:05:20.660Z,98932.31
2023-04-16T01:07:48.679Z,98936.66
2023-04-16T01:10:17.020Z,98928.91
2023-04-16T01:12:45.235Z,98935.94
2023-04-16T01:15:13.223Z,98944.72
2023-04-16T01:17:42.204Z,98937.69
2023-04-16T01:20:10.716Z,98940.13
2023-04-16T01:22:38.924Z,98938.69
2023-04-16T01:25:07.376Z,98939.47
2023-04-16T01:27:35.714Z,98938.62
2023-04-16T01:30:04.368Z,98941.28
2023-04-16T01:32:34.025Z,98936.97
2023-04-16T01:35:02.369Z,98933.47
2023-04-16T01:37:31.205Z,98940.38
2023-04-16T01:39:59.823Z,98935.16
2023-04-16T01:42:28.442Z,98934.31
2023-04-16T01:44:56.401Z,98927.47
2023-04-16T01:47:24.818Z,98930.00
2023-04-16T01:49:52.889Z,98933.41
2023-04-16T01:52:21.359Z,98936.97
2023-04-16T01:54:49.621Z,98932.66
2023-04-16T01:57:17.534Z,98940.34
2023-04-16T01:59:45.592Z,98940.19
2023-04-16T02:02:16.525Z,98943.84
2023-04-16T02:04:46.148Z,98940.38
2023-04-16T02:07:14.105Z,98942.97
2023-04-16T02:09:42.147Z,98938.66
2023-04-16T02:12:12.013Z,98941.28
2023-04-16T02:14:40.011Z,98937.78
2023-04-16T02:17:07.999Z,98939.56
2023-04-16T02:19:36.628Z,98950.81
2023-04-16T02:22:05.170Z,98955.13
2023-04-16T02:24:33.386Z,98956.00
2023-04-16T02:27:04.097Z,98965.44
2023-04-16T02:29:32.456Z,98956.84
2023-04-16T02:32:01.361Z,98953.41
2023-04-16T02:34:30.088Z,98962.88
2023-04-16T02:36:58.624Z,98956.84
2023-04-16T02:39:26.704Z,98956.84
2023-04-16T02:41:55.158Z,98960.31
2023-04-16T02:44:23.507Z,98957.66
2023-04-16T02:46:51.435Z,98955.91
2023-04-16T02:49:19.345Z,98950.69
2023-04-16T02:51:49.205Z,98955.88
2023-04-16T02:54:17.131Z,98959.28
2023-04-16T02:56:45.111Z,98958.56
2023-04-16T02:59:13.432Z,98956.84
2023-04-16T03:01:41.734Z,98957.53
2023-04-16T03:04:09.937Z,98957.59
2023-04-16T03:06:38.216Z,98967.06
2023-04-16T03:09:06.137Z,98964.25
2023-04-16T03:11:34.034Z,98965.88
2023-04-16T03:14:02.275Z,98967.41
2023-04-16T03:16:30.144Z,98963.31
2023-04-16T03:18:58.019Z,98965.16
2023-04-16T03:21:27.832Z,98966.72
2023-04-16T03:23:56.344Z,98963.25
2023-04-16T03:26:24.374Z,98958.00
2023-04-16T03:28:52.785Z,98966.56
2023-04-16T03:31:21.847Z,98976.12
2023-04-16T03:33:49.768Z,98991.88
2023-04-16T03:36:18.194Z,98987.50
2023-04-16T03:38:46.166Z,98997.19
2023-04-16T03:41:14.779Z,98993.53
2023-04-16T03:43:43.165Z,99009.34
2023-04-16T03:46:11.560Z,99007.47
2023-04-16T03:48:39.552Z,99011.03
2023-04-16T03:51:08.451Z,99007.38
2023-04-16T03:53:36.448Z,99014.41
2023-04-16T03:56:04.683Z,99018.84
2023-04-16T03:58:33.046Z,99017.37
2023-04-16T04:01:00.951Z,99028.56
2023-04-16T04:03:29.536Z,99018.41
2023-04-16T04:05:57.818Z,99016.69
2023-04-16T04:08:26.460Z,99023.38
2023-04-16T04:10:54.975Z,99019.22
2023-04-16T04:13:23.411Z,99023.50
2023-04-16T04:15:51.659Z,99016.50
2023-04-16T04:18:20.485Z,99013.09
2023-04-16T04:20:48.440Z,99015.22
2023-04-16T04:23:16.493Z,99021.22
2023-04-16T04:25:45.631Z,99028.78
2023-04-16T04:28:13.863Z,99042.06
2023-04-16T04:30:42.343Z,99041.34
2023-04-16T04:33:11.211Z,99048.06
2023-04-16T04:35:39.160Z,99044.72
2023-04-16T04:38:07.212Z,99052.38
2023-04-16T04:40:35.859Z,99050.75
2023-04-16T04:43:04.112Z,99050.84
2023-04-16T04:45:32.297Z,99045.50
2023-04-16T04:48:00.897Z,99038.88
2023-04-16T04:50:28.860Z,99046.41
2023-04-16T04:52:56.835Z,99039.66
2023-04-16T04:55:25.160Z,99045.12
2023-04-16T04:57:53.063Z,99053.94
2023-04-16T05:00:21.441Z,99048.91
2023-04-16T05:02:50.440Z,99047.87
2023-04-16T05:05:18.526Z,99048.03
2023-04-16T05:07:46.485Z,99050.63
2023-04-16T05:10:14.913Z,99049.88
2023-04-16T05:12:42.902Z,99048.13
2023-04-16T05:15:11.191Z,99043.78
2023-04-16T05:17:39.542Z,99048.13
2023-04-16T05:20:09.283Z,99060.19
2023-04-16T05:22:37.296Z,99057.50
2023-04-16T05:25:05.929Z,99061.84
2023-04-16T05:27:33.821Z,99067.06
2023-04-16T05:30:01.814Z,99063.56
2023-04-16T05:32:30.141Z,99063.56
2023-04-16T05:34:58.110Z,99068.66
2023-04-16T05:37:26.114Z,99073.59
2023-04-16T05:39:54.449Z,99070.06
2023-04-16T05:42:22.334Z,99078.69
2023-04-16T05:44:51.284Z,99073.66
2023-04-16T05:47:19.584Z,99065.72
2023-04-16T05:49:47.492Z,99063.00
2023-04-16T05:52:15.603Z,99065.69
2023-04-16T05:54:43.813Z,99070.84
2023-04-16T05:57:12.048Z,99077.84
2023-04-16T05:59:39.996Z,99076.94
2023-04-16T06:02:08.322Z,99077.78
2023-04-16T06:04:37.479Z,99075.06
2023-04-16T06:07:05.582Z,99081.97
2023-04-16T06:09:33.504Z,99086.78
2023-04-16T06:12:02.292Z,99097.09
2023-04-16T06:14:30.193Z,99087.75
2023-04-16T06:16:58.152Z,99085.06
2023-04-16T06:19:26.390Z,99091.91
2023-04-16T06:21:54.433Z,99091.78
2023-04-16T06:24:22.515Z,99091.50
2023-04-16T06:26:50.780Z,99088.84
2023-04-16T06:29:18.691Z,99087.63
2023-04-16T06:31:46.875Z,99092.97
2023-04-16T06:34:15.144Z,99095.53
2023-04-16T06:36:43.128Z,99096.09
2023-04-16T06:39:11.369Z,99095.88
2023-04-16T06:41:39.899Z,99090.16
2023-04-16T06:44:07.959Z,99090.22
2023-04-16T06:46:35.979Z,99084.34
2023-04-16T06:49:04.369Z,99090.22
2023-04-16T06:51:32.355Z,99093.97
2023-04-16T06:54:00.391Z,99093.53
2023-04-16T06:56:28.704Z,99088.81
2023-04-16T06:58:58.010Z,99083.78
2023-04-16T07:01:26.173Z,99081.97
2023-04-16T07:03:55.007Z,99086.19
2023-04-16T07:06:23.203Z,99082.75
2023-04-16T07:08:51.072Z,99086.81
2023-04-16T07:11:19.597Z,99088.66
2023-04-16T07:13:47.548Z,99090.16
2023-04-16T07:16:15.452Z,99087.44
2023-04-16T07:18:43.729Z,99090.81
2023-04-16T07:21:11.652Z,99088.81
2023-04-16T07:23:39.598Z,99086.91
2023-04-16T07:26:07.920Z,99089.91
2023-04-16T07:28:36.018Z,99089.00
2023-04-16T07:31:04.003Z,99094.41
2023-04-16T07:33:32.302Z,99095.88
2023-04-16T07:36:00.198Z,99093.16
2023-04-16T07:38:28.093Z,99096.41
2023-04-16T07:40:57.033Z,99101.66
2023-04-16T07:43:24.943Z,99097.47
2023-04-16T07:45:52.932Z,99093.13
2023-04-16T07:48:22.261Z,99093.53
2023-04-16T07:50:50.537Z,99098.00
2023-04-16T07:53:18.436Z,99102.59
2023-04-16T07:55:46.779Z,99102.97
2023-04-16T07:58:14.707Z,99105.00
2023-04-16T08:00:42.576Z,99102.47
2023-04-16T08:03:11.064Z,99095.63
2023-04-16T08:05:39.252Z,99107.63
2023-04-16T08:08:07.181Z,99109.94
2023-04-16T08:10:35.562Z,99111.84
2023-04-16T08:13:03.534Z,99104.34
2023-04-16T08:15:31.583Z,99113.59
2023-04-16T08:18:00.047Z,99117.72
2023-04-16T08:20:28.025Z,99119.84
2023-04-16T08:22:56.086Z,99113.28
2023-04-16T08:25:25.021Z,99112.22
2023-04-16T08:27:52.979Z,99117.47
2023-04-16T08:30:22.225Z,99110.59
2023-04-16T08:32:50.680Z,99115.00
2023-04-16T08:35:18.803Z,99126.09
2023-04-16T08:37:46.756Z,99125.59
2023-04-16T08:40:15.399Z,99125.63
2023-04-16T08:42:49.646Z,99126.91
2023-04-16T08:45:18.512Z,99121.94
2023-04-16T08:47:48.295Z,99120.84
2023-04-16T08:50:17.450Z,99130.69
2023-04-16T08:52:53.058Z,99127.81
2023-04-16T08:55:32.592Z,99130.63
2023-04-16T08:58:01.825Z,99136.81
2023-04-16T09:00:32.186Z,99133.88
2023-04-16T09:03:00.795Z,99134.28
2023-04-16T09:05:29.760Z,99136.81
2023-04-16T09:07:57.746Z,99141.94
2023-04-16T09:10:27.271Z,99141.97
2023-04-16T09:12:56.417Z,99146.16
2023-04-16T09:15:26.006Z,99146.47
2023-04-16T09:17:54.660Z,99150.75
2023-04-16T09:20:22.826Z,99147.87
2023-04-16T09:22:50.779Z,99153.59
2023-04-16T09:25:21.051Z,99157.91
2023-04-16T09:27:52.386Z,99152.66
2023-04-16T09:30:24.702Z,99153.75
2023-04-16T09:32:53.829Z,99156.56
2023-04-16T09:35:22.232Z,99161.88
2023-04-16T09:37:57.587Z,99158.91
2023-04-16T09:40:27.745Z,99156.75
2023-04-16T09:43:01.023Z,99154.44
2023-04-16T09:45:32.967Z,99163.78
2023-04-16T09:48:06.315Z,99156.88
2023-04-16T09:50:34.639Z,99160.81
2023-04-16T09:53:03.866Z,99159.47
2023-04-16T09:55:33.059Z,99161.03
2023-04-16T09:58:02.064Z,99153.63
2023-04-16T10:00:31.815Z,99156.28
2023-04-16T10:03:07.375Z,99160.38
2023-04-16T10:05:35.858Z,99153.41
2023-04-16T10:08:11.905Z,99155.41
2023-04-16T10:10:40.765Z,99156.28
2023-04-16T10:13:09.357Z,99148.63
2023-04-16T10:15:37.308Z,99149.66
2023-04-16T10:18:05.718Z,99145.88
2023-04-16T10:20:33.984Z,99151.91
2023-04-16T10:23:02.453Z,99146.22
2023-04-16T10:25:31.440Z,99146.22
2023-04-16T10:28:00.573Z,99137.31
2023-04-16T10:30:28.610Z,99144.66
2023-04-16T10:33:00.257Z,99140.66
2023-04-16T10:35:29.124Z,99139.19
2023-04-16T10:37:58.147Z,99143.06
2023-04-16T10:40:27.590Z,99146.28
2023-04-16T10:42:59.849Z,99134.91
2023-04-16T10:45:32.923Z,99131.13
2023-04-16T10:48:06.389Z,99129.03
2023-04-16T10:50:36.282Z,99125.72
2023-04-16T10:53:23.968Z,99121.91
2023-04-16T10:55:58.691Z,99125.53
2023-04-16T10:58:28.252Z,99116.97
2023-04-16T11:00:56.334Z,99117.69
2023-04-16T11:03:24.338Z,99123.56
2023-04-16T11:05:52.960Z,99118.63
2023-04-16T11:08:21.379Z,99114.91
2023-04-16T11:10:49.538Z,99116.91
2023-04-16T11:13:18.905Z,99120.97
2023-04-16T11:15:48.726Z,99110.44
2023-04-16T11:18:20.094Z,99114.56
2023-04-16T11:20:48.398Z,99117.84
2023-04-16T11:23:16.442Z,99116.09
2023-04-16T11:25:45.261Z,99118.00
2023-04-16T11:28:13.600Z,99114.16
2023-04-16T11:30:41.928Z,99116.31
2023-04-16T11:33:11.697Z,99118.72
2023-04-16T11:35:40.363Z,99113.59
2023-04-16T11:38:08.310Z,99117.44
2023-04-16T11:40:36.609Z,99106.50
2023-04-16T11:43:15.919Z,99119.56
2023-04-16T11:45:57.664Z,99118.97
2023-04-16T11:48:26.233Z,99112.38
2023-04-16T11:51:00.480Z,99112.91
2023-04-16T11:53:28.829Z,99105.16
2023-04-16T11:55:57.460Z,99105.72
2023-04-16T11:58:25.480Z,99099.66
2023-04-16T12:00:57.113Z,99102.41
2023-04-16T12:03:47.142Z,99101.81
2023-04-16T12:06:15.695Z,99104.53
2023-04-16T12:08:43.993Z,99093.66
2023-04-16T12:11:11.910Z,99092.28
2023-04-16T12:13:40.405Z,99093.56
2023-04-16T12:16:21.224Z,99094.53
2023-04-16T12:19:03.233Z,99094.66
2023-04-16T12:21:46.028Z,99089.84
2023-04-16T12:24:16.386Z,99099.47
2023-04-16T12:26:47.526Z,99089.75
2023-04-16T12:29:30.444Z,99096.50
2023-04-16T12:31:58.775Z,99095.75
2023-04-16T12:34:28.949Z,99096.53
2023-04-16T12:37:15.096Z,99094.81
2023-04-16T12:39:43.561Z,99102.75
2023-04-16T12:42:13.040Z,99101.00
2023-04-16T12:44:41.396Z,99091.81
2023-04-16T12:47:09.304Z,99092.00
2023-04-16T12:49:37.630Z,99092.34
2023-04-16T12:52:06.650Z,99093.63
2023-04-16T12:54:34.693Z,99082.06
2023-04-16T12:57:02.631Z,99082.16
2023-04-16T12:59:30.912Z,99086.87
2023-04-16T13:01:58.920Z,99081.25
2023-04-16T13:04:27.103Z,99082.56
2023-04-16T13:06:55.754Z,99075.16
2023-04-16T13:09:23.776Z,99083.50
2023-04-16T13:11:51.794Z,99079.50
2023-04-16T13:14:21.168Z,99072.06
2023-04-16T13:16:49.235Z,99063.41
2023-04-16T13:19:19.382Z,99063.06
2023-04-16T13:21:47.763Z,99068.66
2023-04-16T13:24:15.986Z,99059.31
2023-04-16T13:26:43.939Z,99053.12
2023-04-16T13:29:12.497Z,99063.78
2023-04-16T13:31:41.086Z,99060.69
2023-04-16T13:34:08.980Z,99062.56
2023-04-16T13:36:37.414Z,99052.97
2023-04-16T13:39:10.985Z,99048.09
2023-04-16T13:41:39.815Z,99049.44
2023-04-16T13:44:07.898Z,99046.06
2023-04-16T13:46:35.917Z,99044.75
2023-04-16T13:49:04.208Z,99041.37
2023-04-16T13:51:32.365Z,99040.47
2023-04-16T13:54:00.276Z,99043.91
2023-04-16T13:56:28.823Z,99041.75
2023-04-16T13:58:56.741Z,99042.72
2023-04-16T14:01:24.805Z,99037.69
2023-04-16T14:03:53.205Z,99037.22
2023-04-16T14:06:21.584Z,99031.41
2023-04-16T14:08:49.686Z,99036.16
2023-04-16T14:11:17.966Z,99035.28
2023-04-16T14:13:46.037Z,99034.53
2023-04-16T14:16:14.353Z,99042.31
2023-04-16T14:18:42.631Z,99042.78
2023-04-16T14:21:10.673Z,99040.44
2023-04-16T14:23:38.580Z,99035.03
2023-04-16T14:26:06.853Z,99040.81
2023-04-16T14:28:35.940Z,99040.84
2023-04-16T14:31:03.898Z,99036.75
2023-04-16T14:33:32.641Z,99035.28
2023-04-16T14:36:02.773Z,99034.13
2023-04-16T14:38:31.536Z,99034.00
2023-04-16T14:41:00.708Z,99023.22
2023-04-16T14:43:28.898Z,99031.09
2023-04-16T14:45:58.892Z,99029.50
2023-04-16T14:48:27.364Z,99024.66
2023-04-16T14:50:55.528Z,99020.81
2023-04-16T14:53:24.531Z,99028.97
2023-04-16T14:55:53.730Z,99021.72
2023-04-16T14:58:22.126Z,99026.44
2023-04-16T15:00:50.156Z,99021.75
2023-04-16T15:03:18.634Z,99020.63
2023-04-16T15:05:51.064Z,99021.09
2023-04-16T15:08:19.355Z,99026.97
2023-04-16T15:10:47.359Z,99026.88
2023-04-16T15:13:15.792Z,99013.75
2023-04-16T15:15:44.320Z,99013.97
2023-04-16T15:18:12.330Z,99017.87
2023-04-16T15:20:40.265Z,99019.44
2023-04-16T15:23:08.644Z,99016.66
2023-04-16T15:25:36.607Z,99025.59
2023-04-16T15:28:04.835Z,99016.03
2023-04-16T15:30:33.168Z,99015.25
2023-04-16T15:33:01.243Z,99018.34
2023-04-16T15:35:29.140Z,99018.06
2023-04-16T15:37:57.506Z,99022.47
2023-04-16T15:40:25.863Z,99019.84
2023-04-16T15:42:56.180Z,99020.44
2023-04-16T15:45:24.545Z,99010.37
2023-04-16T15:47:52.463Z,99018.47
2023-04-16T15:50:20.669Z,99024.13
2023-04-16T15:52:49.203Z,99013.84
2023-04-16T15:55:17.861Z,99019.06
2023-04-16T15:57:45.800Z,99012.34
2023-04-16T16:00:16.376Z,99012.91
2023-04-16T16:02:47.244Z,99018.97
2023-04-16T16:05:16.188Z,99022.47
2023-04-16T16:07:44.950Z,99025.31
2023-04-16T16:10:13.470Z,99021.28
2023-04-16T16:12:41.708Z,99019.09
2023-04-16T16:15:11.386Z,99027.47
2023-04-16T16:17:39.575Z,99026.31
2023-04-16T16:20:10.759Z,99023.38
2023-04-16T16:22:39.509Z,99028.41
2023-04-16T16:25:07.790Z,99027.00
2023-04-16T16:27:36.621Z,99024.75
2023-04-16T16:30:07.430Z,99024.19
2023-04-16T16:32:35.552Z,99032.25
2023-04-16T16:35:03.630Z,99020.81
2023-04-16T16:37:31.975Z,99025.81
2023-04-16T16:39:59.943Z,99031.13
2023-04-16T16:42:27.916Z,99024.41
2023-04-16T16:44:57.569Z,99022.19
2023-04-16T16:47:25.669Z,99026.66
2023-04-16T16:49:54.872Z,99030.91
2023-04-16T16:52:24.386Z,99024.78
2023-04-16T16:54:56.926Z,99021.22
2023-04-16T16:57:25.859Z,99035.91
2023-04-16T16:59:54.794Z,99035.34
2023-04-16T17:02:23.312Z,99040.97
2023-04-16T17:04:52.966Z,99038.94
2023-04-16T17:07:21.169Z,99043.00
2023-04-16T17:09:49.018Z,99048.28
2023-04-16T17:12:17.315Z,99042.03
2023-04-16T17:14:46.129Z,99047.06
2023-04-16T17:17:14.000Z,99048.09
2023-04-16T17:19:42.308Z,99056.44
2023-04-16T17:22:10.943Z,99056.81
2023-04-16T17:24:39.335Z,99058.78
2023-04-16T17:27:07.627Z,99060.78
2023-04-16T17:29:35.695Z,99053.69
2023-04-16T17:32:04.118Z,99054.22
2023-04-16T17:34:32.405Z,99055.78
2023-04-16T17:37:00.332Z,99052.88
2023-04-16T17:39:28.210Z,99058.53
2023-04-16T17:41:58.713Z,99058.47
2023-04-16T17:44:28.155Z,99063.09
2023-04-16T17:46:57.105Z,99069.09
2023-04-16T17:49:25.055Z,99072.91
2023-04-16T17:51:54.095Z,99078.44
2023-04-16T17:54:22.421Z,99077.06
2023-04-16T17:56:50.321Z,99075.47
2023-04-16T17:59:18.320Z,99085.34
2023-04-16T18:01:46.728Z,99081.16
2023-04-16T18:04:15.528Z,99081.25
2023-04-16T18:06:44.132Z,99085.63
2023-04-16T18:09:12.331Z,99083.56
2023-04-16T18:11:40.509Z,99090.88
2023-04-16T18:14:10.217Z,99087.97
2023-04-16T18:16:38.265Z,99092.50
2023-04-16T18:19:06.719Z,99090.53
2023-04-16T18:21:35.694Z,99095.47
2023-04-16T18:24:03.737Z,99086.22
2023-04-16T18:26:35.674Z,99089.56
2023-04-16T18:29:04.327Z,99095.00
2023-04-16T18:31:32.687Z,99090.44
2023-04-16T18:34:00.687Z,99098.81
2023-04-16T18:36:28.773Z,99087.06
2023-04-16T18:39:02.056Z,99093.72
2023-04-16T18:41:31.512Z,99098.94
2023-04-16T18:43:59.861Z,99099.81
2023-04-16T18:46:27.931Z,99098.53
2023-04-16T18:48:56.062Z,99103.50
2023-04-16T18:51:24.404Z,99105.38
2023-04-16T18:53:52.394Z,99111.88
2023-04-16T18:56:20.417Z,99109.31
2023-04-16T18:58:49.491Z,99097.72
2023-04-16T19:01:18.103Z,99099.78
2023-04-16T19:03:46.397Z,99100.13
2023-04-16T19:06:14.881Z,99102.50
2023-04-16T19:08:42.789Z,99096.00
2023-04-16T19:11:10.829Z,99092.50
2023-04-16T19:13:39.482Z,99084.03
2023-04-16T19:16:11.639Z,99085.81
2023-04-16T19:18:40.273Z,99084.84
2023-04-16T19:21:10.220Z,99084.88
2023-04-16T19:23:38.163Z,99081.84
2023-04-16T19:26:06.512Z,99078.31
2023-04-16T19:28:34.487Z,99072.84
2023-04-16T19:31:02.605Z,99068.22
2023-04-16T19:33:31.529Z,99074.38
2023-04-16T19:36:00.503Z,99074.75
2023-04-16T19:38:28.954Z,99080.22
2023-04-16T19:40:57.240Z,99078.09
2023-04-16T19:43:25.152Z,99075.72
2023-04-16T19:45:54.499Z,99068.69
2023-04-16T19:48:22.829Z,99068.25
2023-04-16T19:50:50.962Z,99066.78
2023-04-16T19:53:18.969Z,99061.06
2023-04-16T19:55:47.249Z,99075.78
2023-04-16T19:58:15.283Z,99085.44
2023-04-16T20:00:43.709Z,99084.94
2023-04-16T20:03:12.163Z,99073.75
2023-04-16T20:05:40.109Z,99075.41
2023-04-16T20:08:08.021Z,99076.38
2023-04-16T20:10:36.288Z,99071.34
2023-04-16T20:13:05.187Z,99067.59
2023-04-16T20:15:33.075Z,99079.22
2023-04-16T20:18:01.388Z,99078.16
2023-04-16T20:20:29.426Z,99081.03
2023-04-16T20:22:57.395Z,99080.91
2023-04-16T20:25:26.420Z,99073.06
2023-04-16T20:27:54.300Z,99069.31
2023-04-16T20:30:22.883Z,99073.72
2023-04-16T20:32:51.121Z,99066.00
2023-04-16T20:35:19.167Z,99061.38
2023-04-16T20:37:47.107Z,99054.78
2023-04-16T20:40:16.639Z,99064.25
2023-04-16T20:42:46.543Z,99056.81
2023-04-16T20:45:14.552Z,99049.94
2023-04-16T20:47:43.698Z,99054.69
2023-04-16T20:50:12.291Z,99060.19
2023-04-16T20:52:40.355Z,99068.03
2023-04-16T20:55:09.109Z,99067.69
2023-04-16T20:57:37.052Z,99063.47
2023-04-16T21:00:09.056Z,99062.31
2023-04-16T21:02:37.575Z,99064.84
2023-04-16T21:05:09.204Z,99062.25
2023-04-16T21:07:37.507Z,99051.00
2023-04-16T21:10:06.019Z,99058.53
2023-04-16T21:12:33.958Z,99065.13
2023-04-16T21:15:02.577Z,99050.63
2023-04-16T21:17:30.753Z,99052.47
2023-04-16T21:19:58.756Z,99039.78
2023-04-16T21:22:27.023Z,99040.87
2023-04-16T21:24:55.050Z,99048.09
2023-04-16T21:27:22.948Z,99037.84
2023-04-16T21:29:52.063Z,99040.31
2023-04-16T21:32:20.077Z,99038.28
2023-04-16T21:34:48.074Z,99044.31
2023-04-16T21:37:16.324Z,99064.72
2023-04-16T21:39:44.307Z,99050.25
2023-04-16T21:42:12.330Z,99045.38
2023-04-16T21:44:40.731Z,99054.47
2023-04-16T21:47:08.714Z,99043.03
2023-04-16T21:49:36.620Z,99036.91
2023-04-16T21:52:05.170Z,99039.31
2023-04-16T21:54:33.222Z,99028.00
2023-04-16T21:57:01.984Z,99030.78
2023-04-16T21:59:30.294Z,99027.88
2023-04-16T22:01:58.340Z,99024.34
2023-04-16T22:04:37.192Z,99019.22
2023-04-16T22:07:09.116Z,99023.09
2023-04-16T22:09:38.093Z,99029.25
2023-04-16T22:12:12.232Z,99026.75
2023-04-16T22:14:46.153Z,99030.91
2023-04-16T22:17:24.045Z,99030.91
2023-04-16T22:19:53.607Z,99035.47
2023-04-16T22:22:22.036Z,99025.41
2023-04-16T22:24:49.998Z,99023.59
2023-04-16T22:27:18.883Z,99026.41
2023-04-16T22:29:46.833Z,99020.94
2023-04-16T22:32:14.773Z,99014.91
2023-04-16T22:34:43.063Z,99020.00
2023-04-16T22:37:11.037Z,99013.38
2023-04-16T22:39:38.939Z,99013.97
2023-04-16T22:42:07.556Z,98999.69
2023-04-16T22:44:36.979Z,99002.81
2023-04-16T22:47:04.961Z,99003.66
2023-04-16T22:49:33.377Z,99005.34
2023-04-16T22:52:01.470Z,98997.41
2023-04-16T22:54:33.031Z,99007.34
2023-04-16T22:57:01.453Z,99003.53
2023-04-16T22:59:29.325Z,99004.03
2023-04-16T23:01:57.505Z,99009.53
2023-04-16T23:04:26.005Z,98998.69
2023-04-16T23:06:53.986Z,98996.16
2023-04-16T23:09:22.725Z,99004.97
2023-04-16T23:11:51.109Z,99007.66
2023-04-16T23:14:19.697Z,98999.28
2023-04-16T23:16:47.618Z,98998.78
2023-04-16T23:19:15.994Z,98990.22
2023-04-16T23:21:43.989Z,98988.66
2023-04-16T23:24:11.969Z,98984.78
2023-04-16T23:26:40.431Z,98984.78
2023-04-16T23:29:08.386Z,98991.91
2023-04-16T23:31:36.594Z,98982.44
2023-04-16T23:34:04.927Z,98974.69
2023-04-16T23:36:32.917Z,98974.72
2023-04-16T23:39:00.987Z,98977.56
2023-04-16T23:41:29.210Z,98972.78
2023-04-16T23:43:57.347Z,98974.72
2023-04-16T23:46:25.490Z,98965.50
2023-04-16T23:48:55.450Z,98978.91
2023-04-16T23:51:23.437Z,98974.06
2023-04-16T23:53:51.330Z,98971.28
2023-04-16T23:56:19.618Z,98966.66
2023-04-16T23:58:47.620Z,98962.13
